sensor_id;sensor_type;location;lat;lon;timestamp;P1;P2;P0
49686;PMS5003;36064;38.180;-122.272;2023-04-06T00:00:00;1.2;1.2;
49686;PMS5003;36064;38.180;-122.272;2023-04-06T00:05:00;0.2;0.2;
49686;PMS5003;36064;38.180;-122.272;2023-04-06T00:10:00;1.2;1.2;
49686;PMS5003;36064;38.180;-122.272;2023-04-06T00:15:00;1.6;1.2;
49686;PMS5003;36064;38.180;-122.272;2023-04-06T00:20:00;1.2;0.8;
49686;PMS5003;36064;38.180;-122.272;2023-04-06T00:25:00;2.0;0.8;
49686;PMS5003;36064;38.180;-122.272;2023-04-06T00:30:00;0.4;0.2;
49686;PMS5003;36064;38.180;-122.272;2023-04-06T00:35:01;1.8;1.0;
49686;PMS5003;36064;38.180;-122.272;2023-04-06T00:40:00;1.0;0.6;
49686;PMS5003;36064;38.180;-122.272;2023-04-06T00:45:01;2.0;1.0;
49686;PMS5003;36064;38.180;-122.272;2023-04-06T00:55:00;1.8;1.6;
49686;PMS5003;36064;38.180;-122.272;2023-04-06T01:00:00;3.6;2.8;
49686;PMS5003;36064;38.180;-122.272;2023-04-06T01:05:00;2.2;1.4;
49686;PMS5003;36064;38.180;-122.272;2023-04-06T01:10:00;2.2;1.4;
49686;PMS5003;36064;38.180;-122.272;2023-04-06T01:15:00;1.0;1.0;
49686;PMS5003;36064;38.180;-122.272;2023-04-06T01:20:00;1.8;1.8;
49686;PMS5003;36064;38.180;-122.272;2023-04-06T01:25:00;1.0;1.0;
49686;PMS5003;36064;38.180;-122.272;2023-04-06T01:30:00;0.8;1.0;
49686;PMS5003;36064;38.180;-122.272;2023-04-06T01:35:00;0.6;0.0;
49686;PMS5003;36064;38.180;-122.272;2023-04-06T01:40:00;1.0;0.8;
49686;PMS5003;36064;38.180;-122.272;2023-04-06T01:45:00;0.0;0.0;
49686;PMS5003;36064;38.180;-122.272;2023-04-06T01:50:00;1.2;0.8;
49686;PMS5003;36064;38.180;-122.272;2023-04-06T01:55:00;0.0;0.8;
49686;PMS5003;36064;38.180;-122.272;2023-04-06T02:00:01;0.8;0.4;
49686;PMS5003;36064;38.180;-122.272;2023-04-06T02:05:00;0.6;0.6;
49686;PMS5003;36064;38.180;-122.272;2023-04-06T02:10:00;1.2;0.4;
49686;PMS5003;36064;38.180;-122.272;2023-04-06T02:15:00;1.6;1.0;
49686;PMS5003;36064;38.180;-122.272;2023-04-06T02:20:00;2.4;0.4;
49686;PMS5003;36064;38.180;-122.272;2023-04-06T02:25:00;0.8;0.4;
49686;PMS5003;36064;38.180;-122.272;2023-04-06T02:30:00;1.4;0.8;
49686;PMS5003;36064;38.180;-122.272;2023-04-06T02:35:00;0.6;0.6;
49686;PMS5003;36064;38.180;-122.272;2023-04-06T02:40:00;1.0;0.6;
49686;PMS5003;36064;38.180;-122.272;2023-04-06T02:45:00;0.0;0.0;
49686;PMS5003;36064;38.180;-122.272;2023-04-06T02:50:00;0.8;0.8;
49686;PMS5003;36064;38.180;-122.272;2023-04-06T02:55:00;2.4;1.6;
49686;PMS5003;36064;38.180;-122.272;2023-04-06T03:00:00;0.8;0.4;
49686;PMS5003;36064;38.180;-122.272;2023-04-06T03:05:00;0.0;0.0;
49686;PMS5003;36064;38.180;-122.272;2023-04-06T03:10:00;0.4;0.4;
49686;PMS5003;36064;38.180;-122.272;2023-04-06T03:15:00;1.6;1.2;
49686;PMS5003;36064;38.180;-122.272;2023-04-06T03:20:00;1.6;1.0;
49686;PMS5003;36064;38.180;-122.272;2023-04-06T03:25:05;1.6;1.0;
49686;PMS5003;36064;38.180;-122.272;2023-04-06T03:30:01;0.0;0.0;
49686;PMS5003;36064;38.180;-122.272;2023-04-06T03:35:00;0.0;1.0;
49686;PMS5003;36064;38.180;-122.272;2023-04-06T03:40:00;0.2;1.0;
49686;PMS5003;36064;38.180;-122.272;2023-04-06T03:45:01;0.8;0.0;
49686;PMS5003;36064;38.180;-122.272;2023-04-06T03:50:00;0.4;0.2;
49686;PMS5003;36064;38.180;-122.272;2023-04-06T03:55:00;1.6;1.6;
49686;PMS5003;36064;38.180;-122.272;2023-04-06T04:00:00;1.4;1.4;
49686;PMS5003;36064;38.180;-122.272;2023-04-06T04:05:00;0.6;1.0;
49686;PMS5003;36064;38.180;-122.272;2023-04-06T04:10:00;0.8;0.4;
49686;PMS5003;36064;38.180;-122.272;2023-04-06T04:15:00;0.4;0.4;
49686;PMS5003;36064;38.180;-122.272;2023-04-06T04:20:00;1.0;1.0;
49686;PMS5003;36064;38.180;-122.272;2023-04-06T04:25:00;0.0;0.0;
49686;PMS5003;36064;38.180;-122.272;2023-04-06T04:30:00;1.2;0.4;
49686;PMS5003;36064;38.180;-122.272;2023-04-06T04:35:00;2.2;1.0;
49686;PMS5003;36064;38.180;-122.272;2023-04-06T04:40:00;0.8;0.4;
49686;PMS5003;36064;38.180;-122.272;2023-04-06T04:45:00;2.8;2.4;
49686;PMS5003;36064;38.180;-122.272;2023-04-06T04:50:00;1.0;0.8;
49686;PMS5003;36064;38.180;-122.272;2023-04-06T04:55:00;1.0;1.0;
49686;PMS5003;36064;38.180;-122.272;2023-04-06T05:00:00;1.4;0.8;
49686;PMS5003;36064;38.180;-122.272;2023-04-06T05:05:00;1.4;0.8;
49686;PMS5003;36064;38.180;-122.272;2023-04-06T05:10:00;1.0;1.4;
49686;PMS5003;36064;38.180;-122.272;2023-04-06T05:15:00;1.6;0.8;
49686;PMS5003;36064;38.180;-122.272;2023-04-06T05:20:00;0.8;0.4;
49686;PMS5003;36064;38.180;-122.272;2023-04-06T05:25:01;1.4;1.4;
49686;PMS5003;36064;38.180;-122.272;2023-04-06T05:30:01;1.4;1.4;
49686;PMS5003;36064;38.180;-122.272;2023-04-06T05:35:00;2.2;1.8;
49686;PMS5003;36064;38.180;-122.272;2023-04-06T05:40:00;1.0;1.0;
49686;PMS5003;36064;38.180;-122.272;2023-04-06T05:45:00;0.8;0.8;
49686;PMS5003;36064;38.180;-122.272;2023-04-06T05:50:00;2.4;1.6;
49686;PMS5003;36064;38.180;-122.272;2023-04-06T05:55:00;3.2;2.0;
49686;PMS5003;36064;38.180;-122.272;2023-04-06T06:00:00;0.0;0.0;
49686;PMS5003;36064;38.180;-122.272;2023-04-06T06:05:00;1.2;1.2;
49686;PMS5003;36064;38.180;-122.272;2023-04-06T06:10:00;0.4;0.4;
49686;PMS5003;36064;38.180;-122.272;2023-04-06T06:15:00;1.0;1.0;
49686;PMS5003;36064;38.180;-122.272;2023-04-06T06:20:00;1.6;1.4;
49686;PMS5003;36064;38.180;-122.272;2023-04-06T06:25:00;1.8;1.4;
49686;PMS5003;36064;38.180;-122.272;2023-04-06T06:30:01;0.8;0.6;
49686;PMS5003;36064;38.180;-122.272;2023-04-06T06:35:00;0.8;0.6;
49686;PMS5003;36064;38.180;-122.272;2023-04-06T06:40:00;1.8;1.8;
49686;PMS5003;36064;38.180;-122.272;2023-04-06T06:45:00;0.8;1.8;
49686;PMS5003;36064;38.180;-122.272;2023-04-06T06:50:00;1.8;1.0;
49686;PMS5003;36064;38.180;-122.272;2023-04-06T06:55:00;1.4;1.4;
49686;PMS5003;36064;38.180;-122.272;2023-04-06T07:00:00;1.6;1.2;
49686;PMS5003;36064;38.180;-122.272;2023-04-06T07:05:00;1.0;0.8;
49686;PMS5003;36064;38.180;-122.272;2023-04-06T07:10:00;1.8;1.8;
49686;PMS5003;36064;38.180;-122.272;2023-04-06T07:15:00;1.8;1.8;
49686;PMS5003;36064;38.180;-122.272;2023-04-06T07:20:00;3.0;3.0;
49686;PMS5003;36064;38.180;-122.272;2023-04-06T07:25:00;4.8;4.4;
49686;PMS5003;36064;38.180;-122.272;2023-04-06T07:30:00;6.4;5.4;
49686;PMS5003;36064;38.180;-122.272;2023-04-06T07:35:00;5.4;4.4;
49686;PMS5003;36064;38.180;-122.272;2023-04-06T07:40:00;4.2;3.8;
49686;PMS5003;36064;38.180;-122.272;2023-04-06T07:45:00;2.2;2.2;
49686;PMS5003;36064;38.180;-122.272;2023-04-06T07:50:00;3.4;3.6;
49686;PMS5003;36064;38.180;-122.272;2023-04-06T07:55:00;2.4;2.0;
49686;PMS5003;36064;38.180;-122.272;2023-04-06T08:00:00;2.8;2.8;
49686;PMS5003;36064;38.180;-122.272;2023-04-06T08:05:01;4.0;4.0;
49686;PMS5003;36064;38.180;-122.272;2023-04-06T08:10:00;4.2;3.0;
49686;PMS5003;36064;38.180;-122.272;2023-04-06T08:15:00;4.6;3.8;
49686;PMS5003;36064;38.180;-122.272;2023-04-06T08:20:01;5.2;3.4;
49686;PMS5003;36064;38.180;-122.272;2023-04-06T08:25:00;3.6;3.2;
49686;PMS5003;36064;38.180;-122.272;2023-04-06T08:30:00;3.4;3.4;
49686;PMS5003;36064;38.180;-122.272;2023-04-06T08:35:00;4.0;4.0;
49686;PMS5003;36064;38.180;-122.272;2023-04-06T08:40:00;4.4;4.0;
49686;PMS5003;36064;38.180;-122.272;2023-04-06T08:45:01;4.2;3.8;
49686;PMS5003;36064;38.180;-122.272;2023-04-06T08:50:00;3.8;3.8;
49686;PMS5003;36064;38.180;-122.272;2023-04-06T08:55:00;3.8;3.8;
49686;PMS5003;36064;38.180;-122.272;2023-04-06T09:00:00;2.0;1.6;
49686;PMS5003;36064;38.180;-122.272;2023-04-06T09:05:01;3.6;3.4;
49686;PMS5003;36064;38.180;-122.272;2023-04-06T09:10:00;4.0;3.6;
49686;PMS5003;36064;38.180;-122.272;2023-04-06T09:15:01;4.0;3.6;
49686;PMS5003;36064;38.180;-122.272;2023-04-06T09:20:01;3.6;2.4;
49686;PMS5003;36064;38.180;-122.272;2023-04-06T09:25:00;3.8;2.4;
49686;PMS5003;36064;38.180;-122.272;2023-04-06T09:30:08;4.4;3.4;
49686;PMS5003;36064;38.180;-122.272;2023-04-06T09:35:08;4.4;3.4;
49686;PMS5003;36064;38.180;-122.272;2023-04-06T09:40:04;2.4;2.4;
49686;PMS5003;36064;38.180;-122.272;2023-04-06T09:45:01;3.4;3.0;
49686;PMS5003;36064;38.180;-122.272;2023-04-06T09:50:00;3.4;2.8;
49686;PMS5003;36064;38.180;-122.272;2023-04-06T09:55:01;3.4;3.4;
49686;PMS5003;36064;38.180;-122.272;2023-04-06T10:00:03;2.8;4.0;
49686;PMS5003;36064;38.180;-122.272;2023-04-06T10:05:02;5.6;4.4;
49686;PMS5003;36064;38.180;-122.272;2023-04-06T10:10:00;4.8;4.6;
49686;PMS5003;36064;38.180;-122.272;2023-04-06T10:15:00;4.6;3.8;
49686;PMS5003;36064;38.180;-122.272;2023-04-06T10:20:02;3.4;3.4;
49686;PMS5003;36064;38.180;-122.272;2023-04-06T10:25:00;3.0;3.0;
49686;PMS5003;36064;38.180;-122.272;2023-04-06T10:30:01;4.4;4.4;
49686;PMS5003;36064;38.180;-122.272;2023-04-06T10:35:05;3.8;3.8;
49686;PMS5003;36064;38.180;-122.272;2023-04-06T10:40:00;2.4;2.4;
49686;PMS5003;36064;38.180;-122.272;2023-04-06T10:45:00;6.4;5.2;
49686;PMS5003;36064;38.180;-122.272;2023-04-06T10:50:00;7.0;5.2;
49686;PMS5003;36064;38.180;-122.272;2023-04-06T10:55:04;5.6;5.0;
49686;PMS5003;36064;38.180;-122.272;2023-04-06T11:00:00;4.6;4.6;
49686;PMS5003;36064;38.180;-122.272;2023-04-06T11:05:00;4.6;3.6;
49686;PMS5003;36064;38.180;-122.272;2023-04-06T11:10:00;4.4;4.4;
49686;PMS5003;36064;38.180;-122.272;2023-04-06T11:15:01;5.4;4.6;
49686;PMS5003;36064;38.180;-122.272;2023-04-06T11:20:00;7.0;6.6;
49686;PMS5003;36064;38.180;-122.272;2023-04-06T11:25:05;5.6;5.6;
49686;PMS5003;36064;38.180;-122.272;2023-04-06T11:30:01;6.2;4.8;
49686;PMS5003;36064;38.180;-122.272;2023-04-06T11:35:00;6.0;4.8;
49686;PMS5003;36064;38.180;-122.272;2023-04-06T11:40:00;4.8;4.4;
49686;PMS5003;36064;38.180;-122.272;2023-04-06T11:45:00;6.8;6.8;
49686;PMS5003;36064;38.180;-122.272;2023-04-06T11:50:05;6.0;5.6;
49686;PMS5003;36064;38.180;-122.272;2023-04-06T11:55:09;5.8;4.4;
49686;PMS5003;36064;38.180;-122.272;2023-04-06T12:00:00;5.2;3.6;
49686;PMS5003;36064;38.180;-122.272;2023-04-06T12:05:00;6.6;4.8;
49686;PMS5003;36064;38.180;-122.272;2023-04-06T12:10:01;5.2;4.4;
49686;PMS5003;36064;38.180;-122.272;2023-04-06T12:15:00;4.8;4.4;
49686;PMS5003;36064;38.180;-122.272;2023-04-06T12:20:00;5.0;3.8;
49686;PMS5003;36064;38.180;-122.272;2023-04-06T12:25:00;3.8;3.4;
49686;PMS5003;36064;38.180;-122.272;2023-04-06T12:30:00;4.0;3.4;
49686;PMS5003;36064;38.180;-122.272;2023-04-06T12:35:00;3.2;2.8;
49686;PMS5003;36064;38.180;-122.272;2023-04-06T12:40:00;3.8;3.8;
49686;PMS5003;36064;38.180;-122.272;2023-04-06T12:45:00;3.6;3.6;
49686;PMS5003;36064;38.180;-122.272;2023-04-06T12:50:00;2.4;2.4;
49686;PMS5003;36064;38.180;-122.272;2023-04-06T12:55:00;5.6;4.8;
49686;PMS5003;36064;38.180;-122.272;2023-04-06T13:00:01;3.6;4.0;
49686;PMS5003;36064;38.180;-122.272;2023-04-06T13:05:00;4.0;3.6;
49686;PMS5003;36064;38.180;-122.272;2023-04-06T13:10:00;3.6;2.6;
49686;PMS5003;36064;38.180;-122.272;2023-04-06T13:15:00;3.6;3.6;
49686;PMS5003;36064;38.180;-122.272;2023-04-06T13:20:00;4.2;4.2;
49686;PMS5003;36064;38.180;-122.272;2023-04-06T13:25:00;6.2;4.6;
49686;PMS5003;36064;38.180;-122.272;2023-04-06T13:30:01;5.4;4.6;
49686;PMS5003;36064;38.180;-122.272;2023-04-06T13:35:00;7.6;7.6;
49686;PMS5003;36064;38.180;-122.272;2023-04-06T13:40:01;6.2;4.8;
49686;PMS5003;36064;38.180;-122.272;2023-04-06T13:45:01;6.4;5.0;
49686;PMS5003;36064;38.180;-122.272;2023-04-06T13:50:01;6.2;5.6;
49686;PMS5003;36064;38.180;-122.272;2023-04-06T13:55:00;5.4;4.8;
49686;PMS5003;36064;38.180;-122.272;2023-04-06T14:00:00;4.2;4.0;
49686;PMS5003;36064;38.180;-122.272;2023-04-06T14:05:00;5.6;4.0;
49686;PMS5003;36064;38.180;-122.272;2023-04-06T14:10:01;5.2;4.8;
49686;PMS5003;36064;38.180;-122.272;2023-04-06T14:15:00;5.6;4.4;
49686;PMS5003;36064;38.180;-122.272;2023-04-06T14:20:08;6.6;6.6;
49686;PMS5003;36064;38.180;-122.272;2023-04-06T14:25:00;4.6;4.6;
49686;PMS5003;36064;38.180;-122.272;2023-04-06T14:30:00;5.0;4.4;
49686;PMS5003;36064;38.180;-122.272;2023-04-06T14:35:00;7.0;5.6;
49686;PMS5003;36064;38.180;-122.272;2023-04-06T14:40:00;5.4;5.4;
49686;PMS5003;36064;38.180;-122.272;2023-04-06T14:45:00;6.2;5.8;
49686;PMS5003;36064;38.180;-122.272;2023-04-06T14:50:00;8.6;7.4;
49686;PMS5003;36064;38.180;-122.272;2023-04-06T14:55:00;5.4;5.0;
49686;PMS5003;36064;38.180;-122.272;2023-04-06T15:00:00;6.6;6.8;
49686;PMS5003;36064;38.180;-122.272;2023-04-06T15:05:00;6.6;3.8;
49686;PMS5003;36064;38.180;-122.272;2023-04-06T15:10:00;7.8;5.0;
49686;PMS5003;36064;38.180;-122.272;2023-04-06T15:15:11;6.6;4.8;
49686;PMS5003;36064;38.180;-122.272;2023-04-06T15:20:00;4.4;4.4;
49686;PMS5003;36064;38.180;-122.272;2023-04-06T15:25:00;3.2;3.2;
49686;PMS5003;36064;38.180;-122.272;2023-04-06T15:30:00;5.0;4.0;
49686;PMS5003;36064;38.180;-122.272;2023-04-06T15:35:07;4.4;3.2;
49686;PMS5003;36064;38.180;-122.272;2023-04-06T15:40:00;3.4;2.8;
49686;PMS5003;36064;38.180;-122.272;2023-04-06T15:45:00;4.2;3.4;
49686;PMS5003;36064;38.180;-122.272;2023-04-06T15:50:00;5.6;4.8;
49686;PMS5003;36064;38.180;-122.272;2023-04-06T15:55:01;5.4;5.2;
49686;PMS5003;36064;38.180;-122.272;2023-04-06T16:00:01;6.0;5.2;
49686;PMS5003;36064;38.180;-122.272;2023-04-06T16:05:00;4.2;4.2;
49686;PMS5003;36064;38.180;-122.272;2023-04-06T16:10:00;5.0;4.8;
49686;PMS5003;36064;38.180;-122.272;2023-04-06T16:15:00;4.4;4.4;
49686;PMS5003;36064;38.180;-122.272;2023-04-06T16:20:00;4.2;4.2;
49686;PMS5003;36064;38.180;-122.272;2023-04-06T16:25:00;5.4;5.6;
49686;PMS5003;36064;38.180;-122.272;2023-04-06T16:30:01;5.0;3.8;
49686;PMS5003;36064;38.180;-122.272;2023-04-06T16:35:01;4.0;2.8;
49686;PMS5003;36064;38.180;-122.272;2023-04-06T16:40:00;3.4;2.4;
49686;PMS5003;36064;38.180;-122.272;2023-04-06T16:45:01;3.2;3.0;
49686;PMS5003;36064;38.180;-122.272;2023-04-06T16:50:00;2.6;1.4;
49686;PMS5003;36064;38.180;-122.272;2023-04-06T16:55:00;3.8;3.4;
49686;PMS5003;36064;38.180;-122.272;2023-04-06T17:00:01;4.0;3.0;
49686;PMS5003;36064;38.180;-122.272;2023-04-06T17:05:00;3.8;3.2;
49686;PMS5003;36064;38.180;-122.272;2023-04-06T17:10:00;4.8;4.8;
49686;PMS5003;36064;38.180;-122.272;2023-04-06T17:15:03;4.2;3.8;
49686;PMS5003;36064;38.180;-122.272;2023-04-06T17:20:00;8.4;7.6;
49686;PMS5003;36064;38.180;-122.272;2023-04-06T17:25:00;1.8;1.4;
49686;PMS5003;36064;38.180;-122.272;2023-04-06T17:30:00;2.4;2.4;
49686;PMS5003;36064;38.180;-122.272;2023-04-06T17:35:00;2.0;1.2;
49686;PMS5003;36064;38.180;-122.272;2023-04-06T17:40:00;4.0;3.0;
49686;PMS5003;36064;38.180;-122.272;2023-04-06T17:45:01;3.2;2.0;
49686;PMS5003;36064;38.180;-122.272;2023-04-06T17:50:00;1.2;0.6;
49686;PMS5003;36064;38.180;-122.272;2023-04-06T17:55:00;2.2;1.0;
49686;PMS5003;36064;38.180;-122.272;2023-04-06T18:00:00;1.0;1.0;
49686;PMS5003;36064;38.180;-122.272;2023-04-06T18:05:00;1.4;1.4;
49686;PMS5003;36064;38.180;-122.272;2023-04-06T18:10:00;2.2;1.6;
49686;PMS5003;36064;38.180;-122.272;2023-04-06T18:15:01;1.2;1.2;
49686;PMS5003;36064;38.180;-122.272;2023-04-06T18:20:00;2.2;0.8;
49686;PMS5003;36064;38.180;-122.272;2023-04-06T18:25:00;3.4;2.2;
49686;PMS5003;36064;38.180;-122.272;2023-04-06T18:30:01;2.0;1.8;
49686;PMS5003;36064;38.180;-122.272;2023-04-06T18:35:00;3.0;2.6;
49686;PMS5003;36064;38.180;-122.272;2023-04-06T18:40:00;2.0;2.0;
49686;PMS5003;36064;38.180;-122.272;2023-04-06T18:45:01;3.0;3.0;
49686;PMS5003;36064;38.180;-122.272;2023-04-06T18:50:00;1.8;1.4;
49686;PMS5003;36064;38.180;-122.272;2023-04-06T18:55:00;2.4;1.6;
49686;PMS5003;36064;38.180;-122.272;2023-04-06T19:00:02;1.8;1.6;
49686;PMS5003;36064;38.180;-122.272;2023-04-06T19:05:00;1.8;1.4;
49686;PMS5003;36064;38.180;-122.272;2023-04-06T19:10:00;2.2;2.2;
49686;PMS5003;36064;38.180;-122.272;2023-04-06T19:15:02;0.8;0.8;
49686;PMS5003;36064;38.180;-122.272;2023-04-06T19:20:00;1.2;0.8;
49686;PMS5003;36064;38.180;-122.272;2023-04-06T19:25:00;1.4;0.6;
49686;PMS5003;36064;38.180;-122.272;2023-04-06T19:30:01;1.6;1.2;
49686;PMS5003;36064;38.180;-122.272;2023-04-06T19:35:00;1.2;1.2;
49686;PMS5003;36064;38.180;-122.272;2023-04-06T19:40:00;1.2;1.2;
49686;PMS5003;36064;38.180;-122.272;2023-04-06T19:45:00;1.2;1.2;
49686;PMS5003;36064;38.180;-122.272;2023-04-06T19:50:00;1.0;1.0;
49686;PMS5003;36064;38.180;-122.272;2023-04-06T19:55:00;1.6;1.2;
49686;PMS5003;36064;38.180;-122.272;2023-04-06T20:00:00;2.4;1.6;
49686;PMS5003;36064;38.180;-122.272;2023-04-06T20:05:00;3.4;3.0;
49686;PMS5003;36064;38.180;-122.272;2023-04-06T20:10:00;2.8;1.8;
49686;PMS5003;36064;38.180;-122.272;2023-04-06T20:15:00;3.8;1.6;
49686;PMS5003;36064;38.180;-122.272;2023-04-06T20:20:00;5.6;4.2;
49686;PMS5003;36064;38.180;-122.272;2023-04-06T20:25:00;4.6;2.6;
49686;PMS5003;36064;38.180;-122.272;2023-04-06T20:30:00;6.2;4.6;
49686;PMS5003;36064;38.180;-122.272;2023-04-06T20:35:00;5.4;4.4;
49686;PMS5003;36064;38.180;-122.272;2023-04-06T20:40:00;5.4;5.2;
49686;PMS5003;36064;38.180;-122.272;2023-04-06T20:45:00;5.2;5.2;
49686;PMS5003;36064;38.180;-122.272;2023-04-06T20:50:01;2.6;2.6;
49686;PMS5003;36064;38.180;-122.272;2023-04-06T20:55:01;4.4;3.6;
49686;PMS5003;36064;38.180;-122.272;2023-04-06T21:00:01;3.6;3.6;
49686;PMS5003;36064;38.180;-122.272;2023-04-06T21:05:00;5.0;4.2;
49686;PMS5003;36064;38.180;-122.272;2023-04-06T21:10:00;3.4;3.4;
49686;PMS5003;36064;38.180;-122.272;2023-04-06T21:15:00;2.8;2.8;
49686;PMS5003;36064;38.180;-122.272;2023-04-06T21:20:05;2.8;2.8;
49686;PMS5003;36064;38.180;-122.272;2023-04-06T21:25:00;2.0;2.0;
49686;PMS5003;36064;38.180;-122.272;2023-04-06T21:30:00;2.8;2.6;
49686;PMS5003;36064;38.180;-122.272;2023-04-06T21:35:00;2.8;2.6;
49686;PMS5003;36064;38.180;-122.272;2023-04-06T21:40:00;2.4;2.4;
49686;PMS5003;36064;38.180;-122.272;2023-04-06T21:45:00;3.8;3.4;
49686;PMS5003;36064;38.180;-122.272;2023-04-06T21:50:00;4.0;3.6;
49686;PMS5003;36064;38.180;-122.272;2023-04-06T21:55:01;4.0;3.6;
49686;PMS5003;36064;38.180;-122.272;2023-04-06T22:00:01;1.4;0.6;
49686;PMS5003;36064;38.180;-122.272;2023-04-06T22:05:00;1.6;1.2;
49686;PMS5003;36064;38.180;-122.272;2023-04-06T22:10:00;1.2;1.2;
49686;PMS5003;36064;38.180;-122.272;2023-04-06T22:15:00;1.6;1.2;
49686;PMS5003;36064;38.180;-122.272;2023-04-06T22:20:00;0.8;0.6;
49686;PMS5003;36064;38.180;-122.272;2023-04-06T22:25:00;1.2;1.2;
49686;PMS5003;36064;38.180;-122.272;2023-04-06T22:30:00;0.6;0.6;
49686;PMS5003;36064;38.180;-122.272;2023-04-06T22:35:00;1.8;1.0;
49686;PMS5003;36064;38.180;-122.272;2023-04-06T22:40:00;0.6;0.2;
49686;PMS5003;36064;38.180;-122.272;2023-04-06T22:45:00;1.8;1.8;
49686;PMS5003;36064;38.180;-122.272;2023-04-06T22:50:00;1.0;1.0;
49686;PMS5003;36064;38.180;-122.272;2023-04-06T22:55:00;0.2;0.2;
49686;PMS5003;36064;38.180;-122.272;2023-04-06T23:00:00;1.0;0.6;
49686;PMS5003;36064;38.180;-122.272;2023-04-06T23:05:00;1.0;1.0;
49686;PMS5003;36064;38.180;-122.272;2023-04-06T23:10:00;0.6;0.2;
49686;PMS5003;36064;38.180;-122.272;2023-04-06T23:15:00;1.6;0.8;
49686;PMS5003;36064;38.180;-122.272;2023-04-06T23:20:00;0.4;0.4;
49686;PMS5003;36064;38.180;-122.272;2023-04-06T23:25:00;1.6;0.4;
49686;PMS5003;36064;38.180;-122.272;2023-04-06T23:35:00;2.0;1.8;
49686;PMS5003;36064;38.180;-122.272;2023-04-06T23:40:00;2.6;1.8;
49686;PMS5003;36064;38.180;-122.272;2023-04-06T23:45:01;1.4;1.0;
49686;PMS5003;36064;38.180;-122.272;2023-04-06T23:50:00;1.6;1.0;
49686;PMS5003;36064;38.180;-122.272;2023-04-06T23:55:00;1.2;1.0;
